Madeline — WDE3220 — position and weather

sailwx.info

Track history (hours):
 
Tides and Currents Weather Stations Pressure Air Temp Water Temp Dewpoint Dewpoint Depression Visibility Wind Speed Wind Dir Waves Ship Positions

Madeline

Owner: TUG MADELINE, LLC, NEW CASTLE, DE. More information available from US FCC via Universal Licensing System and Coast Guard Vessel Documentation Center.

Last reported at 2018-Jun-19 04:30 UTC. Time now 2018-Jun-19 04:30 UTC.
Position N 39°53' W 075°11'.

Length 23 m; draft 4.6 m.

Type: Tug. MMSI: 367335830.

Date/timePositionNaut miles runAvg speedWind from/ knotsBaromVisibWave heightAir tempDewpointWater temp
2018-Jun-19 04:30N 39°53' W 075°11'0 0.0
2018-Jun-19 04:00N 39°53' W 075°11'0 0.0
2018-Jun-19 03:30N 39°53' W 075°11'0 0.0
2018-Jun-19 03:00N 39°53' W 075°11'0 0.0
2018-Jun-19 02:30N 39°53' W 075°11'0 0.0
2018-Jun-19 02:00N 39°53' W 075°11'1 2.8
2018-Jun-19 01:30N 39°52' W 075°13'3 6.3
2018-Jun-19 01:00N 39°51' W 075°16'0 0.0
2018-Jun-19 00:30N 39°51' W 075°16'0 0.0
2018-Jun-19 00:00N 39°51' W 075°16'1 2.7
2018-Jun-18 23:30N 39°51' W 075°18'1 1.5
2018-Jun-18 23:00N 39°51' W 075°17'1 1.8
2018-Jun-18 22:30N 39°51' W 075°16'0 0.3
2018-Jun-18 22:00N 39°51' W 075°16'2 4.3
2018-Jun-18 21:30N 39°52' W 075°13'0 0.0
2018-Jun-18 21:00N 39°52' W 075°13'0 0.3
2018-Jun-18 20:31N 39°52' W 075°13'2 4.1
2018-Jun-18 20:00N 39°51' W 075°16'4 7.2
2018-Jun-18 19:30N 39°53' W 075°12'0 0.9
2018-Jun-18 19:00N 39°53' W 075°11'0 0.0
2018-Jun-18 18:30N 39°53' W 075°11'0 0.0
2018-Jun-18 18:00N 39°53' W 075°11'0 0.0
2018-Jun-18 17:30N 39°53' W 075°11'0 0.0
2018-Jun-18 17:00N 39°53' W 075°11'1 1.1
2018-Jun-18 16:30N 39°53' W 075°12'4 7.6
2018-Jun-18 16:00N 39°51' W 075°16'0 0.1
2018-Jun-18 15:30N 39°51' W 075°16'4 8.7
2018-Jun-18 15:00N 39°53' W 075°11'0 0.0
2018-Jun-18 14:29N 39°53' W 075°11'0 0.0
2018-Jun-18 14:00N 39°53' W 075°11'0 0.0
2018-Jun-18 13:30N 39°53' W 075°11'0 0.0
2018-Jun-18 13:00N 39°53' W 075°11'0 0.0
2018-Jun-18 12:30N 39°53' W 075°11'0 0.0
2018-Jun-18 12:00N 39°53' W 075°11'0 0.0
2018-Jun-18 11:30N 39°53' W 075°11'0 0.0
2018-Jun-18 11:00N 39°53' W 075°11'0 0.0
2018-Jun-18 10:30N 39°53' W 075°11'0 0.0
2018-Jun-18 10:00N 39°53' W 075°11'0 0.0
2018-Jun-18 09:30N 39°53' W 075°11'0 0.0
2018-Jun-18 09:01N 39°53' W 075°11'0 0.0
2018-Jun-18 08:30N 39°53' W 075°11'0 0.0
2018-Jun-18 08:00N 39°53' W 075°11'0 0.0
2018-Jun-18 07:29N 39°53' W 075°11'0 0.0
2018-Jun-18 07:00N 39°53' W 075°11'0 0.0
2018-Jun-18 06:31N 39°53' W 075°11'0 0.0
2018-Jun-18 06:00N 39°53' W 075°11'0 0.0
2018-Jun-18 05:30N 39°53' W 075°11'0 0.0
2018-Jun-18 05:00N 39°53' W 075°11'0 0.0
2018-Jun-18 04:30N 39°53' W 075°11'0 0.0
2018-Jun-18 04:00N 39°53' W 075°11'0 0.0
2018-Jun-18 03:30N 39°53' W 075°11'0 0.0
2018-Jun-18 03:01N 39°53' W 075°11'0 0.0
2018-Jun-18 02:30N 39°53' W 075°11'0 0.0
2018-Jun-18 02:00N 39°53' W 075°11'0 0.0
2018-Jun-18 01:30N 39°53' W 075°11'0 0.0
2018-Jun-18 01:00N 39°53' W 075°11'0 0.5
2018-Jun-18 00:31N 39°53' W 075°11'4 8.5
2018-Jun-18 00:00N 39°51' W 075°16'0 0.1
2018-Jun-17 23:30N 39°51' W 075°16'0 0.0
2018-Jun-17 23:00N 39°51' W 075°16'2 3.1
2018-Jun-17 22:30N 39°51' W 075°18'1 1.7
2018-Jun-17 22:00N 39°51' W 075°17'4 7.8
2018-Jun-17 21:30N 39°52' W 075°12'1 2.4
2018-Jun-17 21:00N 39°53' W 075°11'0 0.0
2018-Jun-17 20:30N 39°53' W 075°11'0 0.0
2018-Jun-17 20:00N 39°53' W 075°11'0 0.0
2018-Jun-17 19:30N 39°53' W 075°11'0 0.0
2018-Jun-17 19:00N 39°53' W 075°11'0 0.0
2018-Jun-17 18:30N 39°53' W 075°11'0 0.0
2018-Jun-17 18:00N 39°53' W 075°11'0 0.0
2018-Jun-17 17:30N 39°53' W 075°11'0 0.0
2018-Jun-17 17:00N 39°53' W 075°11'0 0.0
2018-Jun-17 16:30N 39°53' W 075°11'0 0.0
2018-Jun-17 16:00N 39°53' W 075°11'0 0.0
2018-Jun-17 15:30N 39°53' W 075°11'0 0.0
2018-Jun-17 15:00N 39°53' W 075°11'0 0.0
2018-Jun-17 14:30N 39°53' W 075°11'0 0.0
2018-Jun-17 14:00N 39°53' W 075°11'0 0.0
2018-Jun-17 13:29N 39°53' W 075°11'0 0.0
2018-Jun-17 13:00N 39°53' W 075°11'0 0.0
2018-Jun-17 12:31N 39°53' W 075°11'0 0.0
2018-Jun-17 12:01N 39°53' W 075°11'0 0.0
2018-Jun-17 11:30N 39°53' W 075°11'4 8.1
2018-Jun-17 11:00N 39°51' W 075°16'0 0.6
2018-Jun-17 10:30N 39°51' W 075°16'0 0.2
2018-Jun-17 10:01N 39°51' W 075°16'1 1.2
2018-Jun-17 09:30N 39°51' W 075°15'4 7.6
2018-Jun-17 09:00N 39°53' W 075°11'0 0.0
2018-Jun-17 08:30N 39°53' W 075°11'0 0.0
2018-Jun-17 08:00N 39°53' W 075°11'0 0.0
2018-Jun-17 07:30N 39°53' W 075°11'0 0.0
2018-Jun-17 07:00N 39°53' W 075°11'0 0.0
2018-Jun-17 06:30N 39°53' W 075°11'0 0.0
2018-Jun-17 06:00N 39°53' W 075°11'0 0.0
2018-Jun-17 05:30N 39°53' W 075°11'0 0.0
2018-Jun-17 05:00N 39°53' W 075°11'0 0.0
2018-Jun-17 04:30N 39°53' W 075°11'0 0.0
2018-Jun-17 04:00N 39°53' W 075°11'0 0.0
2018-Jun-17 03:30N 39°53' W 075°11'0 0.0
2018-Jun-17 03:00N 39°53' W 075°11'0 0.0
2018-Jun-17 02:30N 39°53' W 075°11'0 0.0
2018-Jun-17 02:01N 39°53' W 075°11'0 0.0
2018-Jun-17 01:30N 39°53' W 075°11'0 0.0
2018-Jun-17 01:00N 39°53' W 075°11'0 0.0
2018-Jun-17 00:30N 39°53' W 075°11'0 0.0
2018-Jun-17 00:00N 39°53' W 075°11'0 0.0
2018-Jun-16 23:30N 39°53' W 075°11'0 0.0
2018-Jun-16 23:00N 39°53' W 075°11'0 0.0
2018-Jun-16 22:30N 39°53' W 075°11'0 0.0
2018-Jun-16 22:00N 39°53' W 075°11'0 0.0
2018-Jun-16 21:30N 39°53' W 075°11'0 0.0
2018-Jun-16 21:00N 39°53' W 075°11'0 0.0
2018-Jun-16 20:30N 39°53' W 075°11'3 5.8
2018-Jun-16 20:00N 39°51' W 075°14'611.2
2018-Jun-16 19:30N 39°50' W 075°21'3 5.8
2018-Jun-16 19:00N 39°49' W 075°24'0 0.0
2018-Jun-16 18:17N 39°49' W 075°24'0 0.8
2018-Jun-16 18:01N 39°49' W 075°24'2 2.9
2018-Jun-16 17:19N 39°48' W 075°26'1 3.6
2018-Jun-16 16:59N 39°48' W 075°25'1 0.2
2018-Jun-16 13:38N 39°48' W 075°26'1 8.3
2018-Jun-16 13:30N 39°49' W 075°25'0 0.5
2018-Jun-16 13:00N 39°49' W 075°24'1 2.7
2018-Jun-16 12:30N 39°49' W 075°23'612.6
2018-Jun-16 12:00N 39°51' W 075°15'4 7.3
2018-Jun-16 11:30N 39°53' W 075°11'0 0.0
2018-Jun-16 11:00N 39°53' W 075°11'0 0.0
2018-Jun-16 10:30N 39°53' W 075°11'0 0.0
2018-Jun-16 10:00N 39°53' W 075°11'0 0.0
2018-Jun-16 09:30N 39°53' W 075°11'0 0.0
2018-Jun-16 09:00N 39°53' W 075°11'0 0.0
2018-Jun-16 08:30N 39°53' W 075°11'0 0.0
2018-Jun-16 08:00N 39°53' W 075°11'0 0.0
2018-Jun-16 07:30N 39°53' W 075°11'0 0.0
2018-Jun-16 07:00N 39°53' W 075°11'0 0.0
2018-Jun-16 06:30N 39°53' W 075°11'0 0.0
2018-Jun-16 06:00N 39°53' W 075°11'0 0.0
2018-Jun-16 05:31N 39°53' W 075°11'0 0.0
2018-Jun-16 05:00N 39°53' W 075°11'0 0.0
2018-Jun-16 04:30N 39°53' W 075°11'0 0.0
2018-Jun-16 04:00N 39°53' W 075°11'0 0.0
2018-Jun-16 03:30N 39°53' W 075°11'0 0.0
2018-Jun-16 03:00N 39°53' W 075°11'0 0.0
2018-Jun-16 02:30N 39°53' W 075°11'0 0.0
2018-Jun-16 02:00N 39°53' W 075°11'0 0.0
2018-Jun-16 01:31N 39°53' W 075°11'0 0.0
2018-Jun-16 01:01N 39°53' W 075°11'0 0.0
2018-Jun-16 00:30N 39°53' W 075°11'0 0.0
2018-Jun-16 00:00N 39°53' W 075°11'0 0.0
2018-Jun-15 23:31N 39°53' W 075°11'0 0.0
2018-Jun-15 22:59N 39°53' W 075°11'0 0.0
2018-Jun-15 22:30N 39°53' W 075°11'0 0.0
2018-Jun-15 22:00N 39°53' W 075°11'0 0.0
2018-Jun-15 21:31N 39°53' W 075°11'0 0.0
2018-Jun-15 21:00N 39°53' W 075°11'0 0.0
2018-Jun-15 20:31N 39°53' W 075°11'0 0.0
2018-Jun-15 19:56N 39°53' W 075°11'0 0.0
2018-Jun-15 19:31N 39°53' W 075°11'0 0.0
2018-Jun-15 19:01N 39°53' W 075°11'0 0.0
2018-Jun-15 18:30N 39°53' W 075°11'0 0.0
2018-Jun-15 18:00N 39°53' W 075°11'0 0.0
2018-Jun-15 17:31N 39°53' W 075°11'0 0.0
2018-Jun-15 17:00N 39°53' W 075°11'0 0.0
2018-Jun-15 16:31N 39°53' W 075°11'0 0.0
2018-Jun-15 16:00N 39°53' W 075°11'0 0.0
2018-Jun-15 15:30N 39°53' W 075°11'0 0.0
2018-Jun-15 15:00N 39°53' W 075°11'1 1.1
2018-Jun-15 14:30N 39°53' W 075°12'0 0.0
2018-Jun-15 14:00N 39°53' W 075°12'0 0.0
2018-Jun-15 13:30N 39°53' W 075°12'0 0.2
2018-Jun-15 13:00N 39°53' W 075°12'1 1.0
2018-Jun-15 12:30N 39°53' W 075°11'0 0.0
2018-Jun-15 12:00N 39°53' W 075°11'0 0.0
2018-Jun-15 11:30N 39°53' W 075°11'0 0.0
2018-Jun-15 11:01N 39°53' W 075°11'1 2.3
2018-Jun-15 10:31N 39°53' W 075°10'0 0.3
2018-Jun-15 10:00N 39°53' W 075°10'1 2.1
2018-Jun-15 09:30N 39°53' W 075°11'0 0.0
2018-Jun-15 09:00N 39°53' W 075°11'0 0.0
2018-Jun-15 08:30N 39°53' W 075°11'0 0.0
2018-Jun-15 07:59N 39°53' W 075°11'0 0.0
2018-Jun-15 07:30N 39°53' W 075°11'0 0.0
2018-Jun-15 07:00N 39°53' W 075°11'0 0.0
2018-Jun-15 06:30N 39°53' W 075°11'0 0.0
2018-Jun-15 06:00N 39°53' W 075°11'0 0.0
2018-Jun-15 05:30N 39°53' W 075°11'0 0.0
2018-Jun-15 05:00N 39°53' W 075°11'0 0.0
2018-Jun-15 04:30N 39°53' W 075°11'0 0.0
2018-Jun-15 04:00N 39°53' W 075°11'0 0.0
2018-Jun-15 03:30N 39°53' W 075°11'3 5.3
2018-Jun-15 03:00N 39°54' W 075°08'4 8.2
2018-Jun-15 02:31N 39°58' W 075°07'2 3.7
2018-Jun-15 02:00N 39°59' W 075°04'0 0.0
2018-Jun-15 01:31N 39°59' W 075°04'0 0.0
2018-Jun-15 01:00N 39°59' W 075°04'0 0.0
2018-Jun-15 00:30N 39°59' W 075°04'0 0.0
2018-Jun-15 00:00N 39°59' W 075°04'3 6.0
2018-Jun-14 23:30N 39°58' W 075°08'4 7.2
2018-Jun-14 23:00N 39°54' W 075°08'3 5.0
2018-Jun-14 22:30N 39°53' W 075°11'0 0.0
2018-Jun-14 22:00N 39°53' W 075°11'0 0.0
2018-Jun-14 21:30N 39°53' W 075°11'0 0.0
2018-Jun-14 21:00N 39°53' W 075°11'0 0.0
2018-Jun-14 20:30N 39°53' W 075°11'0 0.0
2018-Jun-14 20:00N 39°53' W 075°11'0 0.0
2018-Jun-14 19:30N 39°53' W 075°11'0 0.0
2018-Jun-14 19:00N 39°53' W 075°11'0 0.0
2018-Jun-14 18:30N 39°53' W 075°11'0 0.0
2018-Jun-14 18:00N 39°53' W 075°11'0 0.0
2018-Jun-14 17:31N 39°53' W 075°11'0 0.0
2018-Jun-14 17:00N 39°53' W 075°11'0 0.0
2018-Jun-14 16:30N 39°53' W 075°11'0 0.0
2018-Jun-14 16:00N 39°53' W 075°11'0 0.0
2018-Jun-14 15:30N 39°53' W 075°11'0 0.0
2018-Jun-14 15:01N 39°53' W 075°11'2 3.7
2018-Jun-14 14:30N 39°53' W 075°09'4 8.6
2018-Jun-14 14:00N 39°57' W 075°08'3 6.2
2018-Jun-14 13:30N 39°59' W 075°04'0 0.0
2018-Jun-14 13:00N 39°59' W 075°04'1 2.4
2018-Jun-14 12:30N 39°59' W 075°06'0 0.0
2018-Jun-14 12:01N 39°59' W 075°06'0 0.0
2018-Jun-14 11:31N 39°59' W 075°06'0 0.0
2018-Jun-14 11:00N 39°59' W 075°06'3 5.4
2018-Jun-14 10:30N 39°57' W 075°08'3 5.8
2018-Jun-14 10:00N 39°54' W 075°08'4 7.8
2018-Jun-14 09:31N 39°52' W 075°13'3 5.8
2018-Jun-14 09:00N 39°51' W 075°16'0 0.0
2018-Jun-14 08:30N 39°51' W 075°16'0 0.1
2018-Jun-14 08:00N 39°51' W 075°16'1 2.0
2018-Jun-14 07:30N 39°51' W 075°17'1 1.2
2018-Jun-14 07:00N 39°51' W 075°18'5 9.4
2018-Jun-14 06:31N 39°52' W 075°13'1 2.6
2018-Jun-14 06:00N 39°53' W 075°11'0 0.0
2018-Jun-14 05:30N 39°53' W 075°11'0 0.0
2018-Jun-14 05:00N 39°53' W 075°11'0 0.0
2018-Jun-14 04:30N 39°53' W 075°11'0 0.0
2018-Jun-14 04:00N 39°53' W 075°11'0 0.0
2018-Jun-14 03:30N 39°53' W 075°11'0 0.0
2018-Jun-14 03:00N 39°53' W 075°11'0 0.0
2018-Jun-14 02:30N 39°53' W 075°11'0 0.0
2018-Jun-14 02:00N 39°53' W 075°11'0 0.0
2018-Jun-14 01:31N 39°53' W 075°11'0 0.0
2018-Jun-14 01:00N 39°53' W 075°11'0 0.0
2018-Jun-14 00:30N 39°53' W 075°11'0 0.0
2018-Jun-14 00:00N 39°53' W 075°11'0 0.0
2018-Jun-13 23:31N 39°53' W 075°11'0 0.0
2018-Jun-13 23:00N 39°53' W 075°11'0 0.0
2018-Jun-13 22:30N 39°53' W 075°11'0 0.0
2018-Jun-13 22:00N 39°53' W 075°11'0 0.0
2018-Jun-13 21:30N 39°53' W 075°11'0 0.0
2018-Jun-13 21:01N 39°53' W 075°11'0 0.0
2018-Jun-13 20:30N 39°53' W 075°11'0 0.0
2018-Jun-13 20:00N 39°53' W 075°11'1 1.9
2018-Jun-13 19:30N 39°53' W 075°10'0 0.6
2018-Jun-13 19:00N 39°53' W 075°10'0 0.3
2018-Jun-13 18:31N 39°53' W 075°10'4 7.6
2018-Jun-13 18:01N 39°52' W 075°14'5 9.5
2018-Jun-13 17:31N 39°51' W 075°20'611.8
2018-Jun-13 17:01N 39°47' W 075°27'713.6
2018-Jun-13 16:31N 39°42' W 075°31'612.6
2018-Jun-13 16:00N 39°36' W 075°34'1 2.4
2018-Jun-13 15:30N 39°35' W 075°35'1 1.4
2018-Jun-13 15:00N 39°35' W 075°36'1 1.6
2018-Jun-13 14:30N 39°35' W 075°35'1 1.1
2018-Jun-13 14:01N 39°35' W 075°35'0 0.3
2018-Jun-13 13:30N 39°35' W 075°35'0 0.0
2018-Jun-13 13:00N 39°35' W 075°35'0 0.0
2018-Jun-13 12:30N 39°35' W 075°35'0 0.0
2018-Jun-13 12:00N 39°35' W 075°35'0 0.0
2018-Jun-13 11:29N 39°35' W 075°35'0 0.0
2018-Jun-13 11:01N 39°35' W 075°35'0 0.0
2018-Jun-13 10:30N 39°35' W 075°35'0 0.0
2018-Jun-13 10:00N 39°35' W 075°35'0 0.0
2018-Jun-13 09:30N 39°35' W 075°35'0 0.0
2018-Jun-13 09:00N 39°35' W 075°35'0 0.0
2018-Jun-13 08:30N 39°35' W 075°35'0 0.0
2018-Jun-13 08:00N 39°35' W 075°35'0 0.0
2018-Jun-13 07:31N 39°35' W 075°35'0 0.0
2018-Jun-13 07:00N 39°35' W 075°35'0 0.4
2018-Jun-13 06:30N 39°35' W 075°36'0 0.1
2018-Jun-13 06:00N 39°35' W 075°36'0 0.0
2018-Jun-13 05:30N 39°35' W 075°36'0 0.0
2018-Jun-13 05:00N 39°35' W 075°36'0 0.0
2018-Jun-13 04:31N 39°35' W 075°36'0 0.0
2018-Jun-13 04:01N 39°35' W 075°36'0 0.0
2018-Jun-13 03:30N 39°35' W 075°36'5 9.2
2018-Jun-13 03:01N 39°31' W 075°33'713.7
2018-Jun-13 02:30N 39°25' W 075°30'713.7
2018-Jun-13 02:00N 39°19' W 075°24'714.8
2018-Jun-13 01:30N 39°14' W 075°18'1412.1
2018-Jun-13 00:21N 39°00' W 075°14'0 0.1
2018-Jun-12 23:57N 39°00' W 075°14'1 1.3
2018-Jun-12 23:29N 39°01' W 075°14'0 0.6
2018-Jun-12 23:00N 39°01' W 075°15'1 0.9
2018-Jun-12 22:01N 39°02' W 075°14'0 2.2
2018-Jun-12 21:57N 39°02' W 075°14'0 0.7
2018-Jun-12 21:28N 39°01' W 075°14'1 1.7
2018-Jun-12 20:53N 39°02' W 075°14'5 7.1
2018-Jun-12 20:13N 39°07' W 075°13'311.5
2018-Jun-12 19:58N 39°10' W 075°15'714.4
2018-Jun-12 19:30N 39°15' W 075°20'715.3
2018-Jun-12 19:00N 39°21' W 075°26'815.1
2018-Jun-12 18:31N 39°27' W 075°32'713.9
2018-Jun-12 18:01N 39°34' W 075°33'2 4.1
2018-Jun-12 17:30N 39°35' W 075°35'0 0.0
2018-Jun-12 17:00N 39°35' W 075°35'1 2.0
2018-Jun-12 16:30N 39°35' W 075°34'1 2.4
2018-Jun-12 16:00N 39°34' W 075°33'2 5.0
2018-Jun-12 15:30N 39°36' W 075°34'4 8.2
2018-Jun-12 15:00N 39°40' W 075°32'4 8.5
2018-Jun-12 14:30N 39°44' W 075°30'5 9.6
2018-Jun-12 14:00N 39°48' W 075°26'4 7.2
2018-Jun-12 13:30N 39°50' W 075°22'4 7.1
2018-Jun-12 13:01N 39°51' W 075°18'1 2.7
2018-Jun-12 12:31N 39°51' W 075°16'0 0.3
2018-Jun-12 12:00N 39°51' W 075°16'3 6.2
2018-Jun-12 11:31N 39°52' W 075°12'1 2.7
2018-Jun-12 11:00N 39°53' W 075°11'0 0.0
2018-Jun-12 10:30N 39°53' W 075°11'0 0.0
2018-Jun-12 10:00N 39°53' W 075°11'0 0.0
2018-Jun-12 09:30N 39°53' W 075°11'0 0.0
2018-Jun-12 09:01N 39°53' W 075°11'0 0.0
2018-Jun-12 08:30N 39°53' W 075°11'0 0.0
2018-Jun-12 08:00N 39°53' W 075°11'0 0.0
2018-Jun-12 07:31N 39°53' W 075°11'0 0.0
2018-Jun-12 07:00N 39°53' W 075°11'0 0.0
2018-Jun-12 06:30N 39°53' W 075°11'0 0.0
2018-Jun-12 06:00N 39°53' W 075°11'0 0.0
2018-Jun-12 05:30N 39°53' W 075°11'0 0.0
2018-Jun-12 05:00N 39°53' W 075°11'0 0.0
2018-Jun-12 04:31N 39°53' W 075°11'0 0.0
2018-Jun-12 04:00N 39°53' W 075°11'0 0.0
2018-Jun-12 03:30N 39°53' W 075°11'0 0.0
2018-Jun-12 03:00N 39°53' W 075°11'0 0.0
2018-Jun-12 02:30N 39°53' W 075°11'0 0.0
2018-Jun-12 02:00N 39°53' W 075°11'0 0.0
2018-Jun-12 01:30N 39°53' W 075°11'0 0.0
2018-Jun-12 01:00N 39°53' W 075°11'2 3.7
2018-Jun-12 00:30N 39°52' W 075°13'0 0.1
2018-Jun-12 00:00N 39°52' W 075°13'1 2.8
2018-Jun-11 23:31N 39°53' W 075°12'0 0.9
2018-Jun-11 23:00N 39°53' W 075°11'0 0.0
2018-Jun-11 22:30N 39°53' W 075°11'0 0.0
2018-Jun-11 22:00N 39°53' W 075°11'0 0.0
2018-Jun-11 21:30N 39°53' W 075°11'0 0.0
2018-Jun-11 21:00N 39°53' W 075°11'0 0.0
2018-Jun-11 20:30N 39°53' W 075°11'0 0.0
2018-Jun-11 20:00N 39°53' W 075°11'0 0.0
2018-Jun-11 19:30N 39°53' W 075°11'0 0.0
2018-Jun-11 19:00N 39°53' W 075°11'4 7.3
2018-Jun-11 18:30N 39°51' W 075°15'1 1.8
2018-Jun-11 18:00N 39°51' W 075°16'0 0.0
2018-Jun-11 17:30N 39°51' W 075°16'1 2.5
2018-Jun-11 17:00N 39°51' W 075°18'1 2.5
2018-Jun-11 16:30N 39°51' W 075°16'3 6.2
2018-Jun-11 16:00N 39°52' W 075°13'4 8.4
2018-Jun-11 15:30N 39°54' W 075°08'3 6.5
2018-Jun-11 15:01N 39°58' W 075°08'2 3.7
2018-Jun-11 14:31N 39°59' W 075°06'0 0.0
2018-Jun-11 14:00N 39°59' W 075°06'0 0.0
2018-Jun-11 13:31N 39°59' W 075°06'0 0.0
2018-Jun-11 13:00N 39°59' W 075°06'0 0.0
2018-Jun-11 12:30N 39°59' W 075°06'0 0.0
2018-Jun-11 11:59N 39°59' W 075°06'0 0.0
2018-Jun-11 11:30N 39°59' W 075°06'0 0.0
2018-Jun-11 11:00N 39°59' W 075°06'0 0.0
2018-Jun-11 10:30N 39°59' W 075°06'0 0.0
2018-Jun-11 10:00N 39°59' W 075°06'0 0.0
2018-Jun-11 09:30N 39°59' W 075°06'0 0.0
2018-Jun-11 09:00N 39°59' W 075°06'0 0.0
2018-Jun-11 08:30N 39°59' W 075°06'1 2.4
2018-Jun-11 08:01N 39°59' W 075°04'0 0.1
2018-Jun-11 07:31N 39°59' W 075°04'1 2.4
2018-Jun-11 07:01N 39°59' W 075°06'0 0.1
2018-Jun-11 06:30N 39°59' W 075°06'0 0.0
2018-Jun-11 06:00N 39°59' W 075°06'0 0.0
2018-Jun-11 05:30N 39°59' W 075°06'0 0.0
2018-Jun-11 05:00N 39°59' W 075°06'0 0.0
2018-Jun-11 04:30N 39°59' W 075°06'3 6.7
2018-Jun-11 04:01N 39°56' W 075°08'3 6.9
2018-Jun-11 03:31N 39°53' W 075°11'2 3.9
2018-Jun-11 03:00N 39°52' W 075°13'0 0.0
2018-Jun-11 02:28N 39°52' W 075°13'1 1.2
2018-Jun-11 01:55N 39°52' W 075°14'1 1.2
2018-Jun-11 01:27N 39°51' W 075°14'3 6.8
2018-Jun-11 01:00N 39°53' W 075°11'2 4.1
2018-Jun-11 00:25N 39°54' W 075°08'510.3
2018-Jun-10 23:55N 39°59' W 075°06'0 0.3
2018-Jun-10 23:24N 39°59' W 075°05'0 0.2
2018-Jun-10 22:53N 39°59' W 075°05'1 1.2
2018-Jun-10 22:27N 39°59' W 075°06'0 0.0
2018-Jun-10 21:50N 39°59' W 075°06'0 0.0
2018-Jun-10 21:20N 39°59' W 075°06'0 0.0
2018-Jun-10 20:51N 39°59' W 075°06'0 0.0
2018-Jun-10 20:26N 39°59' W 075°06'0 0.0
2018-Jun-10 19:50N 39°59' W 075°06'0 0.0
2018-Jun-10 19:20N 39°59' W 075°06'0 0.0
2018-Jun-10 18:50N 39°59' W 075°06'0 0.0
2018-Jun-10 18:20N 39°59' W 075°06'0 0.0
2018-Jun-10 17:51N 39°59' W 075°06'0 0.0
2018-Jun-10 17:22N 39°59' W 075°06'0 0.0
2018-Jun-10 16:51N 39°59' W 075°06'0 0.0
2018-Jun-10 16:23N 39°59' W 075°06'0 0.0
2018-Jun-10 15:54N 39°59' W 075°06'0 0.0
2018-Jun-10 15:25N 39°59' W 075°06'0 0.0
2018-Jun-10 14:56N 39°59' W 075°06'0 0.0
2018-Jun-10 14:28N 39°59' W 075°06'0 0.0
2018-Jun-10 13:29N 39°59' W 075°06'0 0.0
2018-Jun-10 12:56N 39°59' W 075°06'0 0.0
2018-Jun-10 12:30N 39°59' W 075°06'0 0.0
2018-Jun-10 11:59N 39°59' W 075°06'0 0.0
2018-Jun-10 11:29N 39°59' W 075°06'0 0.0
2018-Jun-10 10:59N 39°59' W 075°06'1 2.0
2018-Jun-10 10:22N 39°59' W 075°04'1 3.2
2018-Jun-10 09:58N 39°59' W 075°06'0 0.0
2018-Jun-10 09:25N 39°59' W 075°06'0 0.0
2018-Jun-10 08:53N 39°59' W 075°06'0 0.0
2018-Jun-10 08:29N 39°59' W 075°06'0 0.0
2018-Jun-10 07:59N 39°59' W 075°06'0 0.0
2018-Jun-10 07:25N 39°59' W 075°06'0 0.0
2018-Jun-10 06:52N 39°59' W 075°06'0 0.0
2018-Jun-10 06:26N 39°59' W 075°06'0 0.0
2018-Jun-10 05:50N 39°59' W 075°06'0 0.0
2018-Jun-10 05:27N 39°59' W 075°06'0 0.0
2018-Jun-10 04:57N 39°59' W 075°06'0 0.0
2018-Jun-10 04:30N 39°59' W 075°06'0 0.0
2018-Jun-10 03:56N 39°59' W 075°06'0 0.0
2018-Jun-10 03:22N 39°59' W 075°06'0 0.0
2018-Jun-10 03:00N 39°59' W 075°06'0 0.0
2018-Jun-10 02:22N 39°59' W 075°06'0 0.0
2018-Jun-10 01:53N 39°59' W 075°06'0 0.0
2018-Jun-10 01:28N 39°59' W 075°06'0 0.0
2018-Jun-10 00:58N 39°59' W 075°06'0 0.0
2018-Jun-10 00:25N 39°59' W 075°06'0 0.0
2018-Jun-09 23:55N 39°59' W 075°06'1 2.5
2018-Jun-09 23:28N 39°59' W 075°05'0 0.3
2018-Jun-09 22:58N 39°59' W 075°04'1 1.9
2018-Jun-09 22:26N 39°59' W 075°06'0 0.9
2018-Jun-09 21:57N 39°58' W 075°06'3 6.0
2018-Jun-09 21:25N 39°56' W 075°08'0 1.0
2018-Jun-09 21:00N 39°55' W 075°08'3 6.0
2018-Jun-09 20:27N 39°58' W 075°07'1 0.9
2018-Jun-09 19:48N 39°59' W 075°06'0 0.0
2018-Jun-09 19:24N 39°59' W 075°06'0 0.0
2018-Jun-09 18:50N 39°59' W 075°06'0 0.0
2018-Jun-09 18:27N 39°59' W 075°06'2 3.2
2018-Jun-09 17:58N 39°58' W 075°08'4 7.5
2018-Jun-09 17:26N 39°54' W 075°08'2 4.6
2018-Jun-09 17:00N 39°53' W 075°10'2 4.3
2018-Jun-09 16:29N 39°52' W 075°13'0 0.2
2018-Jun-09 16:01N 39°52' W 075°13'2 1.8
2018-Jun-09 15:00N 39°53' W 075°11'0 0.0
2018-Jun-09 14:28N 39°53' W 075°11'2 3.6
2018-Jun-09 13:58N 39°53' W 075°09'4 8.7
2018-Jun-09 13:30N 39°57' W 075°08'3 5.3
2018-Jun-09 13:00N 39°59' W 075°05'0 0.2
2018-Jun-09 12:30N 39°59' W 075°05'3 6.0
2018-Jun-09 11:59N 39°57' W 075°08'2 4.4
2018-Jun-09 11:29N 39°54' W 075°08'3 5.8
2018-Jun-09 11:00N 39°53' W 075°11'0 0.0
2018-Jun-09 10:29N 39°53' W 075°11'0 0.0
2018-Jun-09 10:00N 39°53' W 075°11'0 0.0
2018-Jun-09 09:27N 39°53' W 075°11'0 0.0
2018-Jun-09 08:59N 39°53' W 075°11'0 0.0
2018-Jun-09 08:30N 39°53' W 075°11'0 0.0
2018-Jun-09 07:59N 39°53' W 075°11'0 0.0
2018-Jun-09 07:29N 39°53' W 075°11'0 0.0
2018-Jun-09 07:00N 39°53' W 075°11'0 0.0
2018-Jun-09 06:30N 39°53' W 075°11'0 0.0
2018-Jun-09 06:00N 39°53' W 075°11'0 0.0
2018-Jun-09 05:30N 39°53' W 075°11'0 0.0
2018-Jun-09 05:00N 39°53' W 075°11'  
Track history (hours):
 
Tides and Currents Weather Stations Pressure Air Temp Water Temp Dewpoint Dewpoint Depression Visibility Wind Speed Wind Dir Waves Ship Positions

Madeline

Owner: TUG MADELINE, LLC, NEW CASTLE, DE. More information available from US FCC via Universal Licensing System and Coast Guard Vessel Documentation Center.

Last reported at 2018-Jun-19 04:30 UTC. Time now 2018-Jun-19 04:30 UTC.
Position N 39°53' W 075°11'.

Length 23 m; draft 4.6 m.

Type: Tug. MMSI: 367335830.

Date/timePositionNaut miles runAvg speedWind from/ knotsBaromVisibWave heightAir tempDewpointWater temp
2018-Jun-19 04:30N 39°53' W 075°11'0 0.0
2018-Jun-19 04:00N 39°53' W 075°11'0 0.0
2018-Jun-19 03:30N 39°53' W 075°11'0 0.0
2018-Jun-19 03:00N 39°53' W 075°11'0 0.0
2018-Jun-19 02:30N 39°53' W 075°11'0 0.0
2018-Jun-19 02:00N 39°53' W 075°11'1 2.8
2018-Jun-19 01:30N 39°52' W 075°13'3 6.3
2018-Jun-19 01:00N 39°51' W 075°16'0 0.0
2018-Jun-19 00:30N 39°51' W 075°16'0 0.0
2018-Jun-19 00:00N 39°51' W 075°16'1 2.7
2018-Jun-18 23:30N 39°51' W 075°18'1 1.5
2018-Jun-18 23:00N 39°51' W 075°17'1 1.8
2018-Jun-18 22:30N 39°51' W 075°16'0 0.3
2018-Jun-18 22:00N 39°51' W 075°16'2 4.3
2018-Jun-18 21:30N 39°52' W 075°13'0 0.0
2018-Jun-18 21:00N 39°52' W 075°13'0 0.3
2018-Jun-18 20:31N 39°52' W 075°13'2 4.1
2018-Jun-18 20:00N 39°51' W 075°16'4 7.2
2018-Jun-18 19:30N 39°53' W 075°12'0 0.9
2018-Jun-18 19:00N 39°53' W 075°11'0 0.0
2018-Jun-18 18:30N 39°53' W 075°11'0 0.0
2018-Jun-18 18:00N 39°53' W 075°11'0 0.0
2018-Jun-18 17:30N 39°53' W 075°11'0 0.0
2018-Jun-18 17:00N 39°53' W 075°11'1 1.1
2018-Jun-18 16:30N 39°53' W 075°12'4 7.6
2018-Jun-18 16:00N 39°51' W 075°16'0 0.1
2018-Jun-18 15:30N 39°51' W 075°16'4 8.7
2018-Jun-18 15:00N 39°53' W 075°11'0 0.0
2018-Jun-18 14:29N 39°53' W 075°11'0 0.0
2018-Jun-18 14:00N 39°53' W 075°11'0 0.0
2018-Jun-18 13:30N 39°53' W 075°11'0 0.0
2018-Jun-18 13:00N 39°53' W 075°11'0 0.0
2018-Jun-18 12:30N 39°53' W 075°11'0 0.0
2018-Jun-18 12:00N 39°53' W 075°11'0 0.0
2018-Jun-18 11:30N 39°53' W 075°11'0 0.0
2018-Jun-18 11:00N 39°53' W 075°11'0 0.0
2018-Jun-18 10:30N 39°53' W 075°11'0 0.0
2018-Jun-18 10:00N 39°53' W 075°11'0 0.0
2018-Jun-18 09:30N 39°53' W 075°11'0 0.0
2018-Jun-18 09:01N 39°53' W 075°11'0 0.0
2018-Jun-18 08:30N 39°53' W 075°11'0 0.0
2018-Jun-18 08:00N 39°53' W 075°11'0 0.0
2018-Jun-18 07:29N 39°53' W 075°11'0 0.0
2018-Jun-18 07:00N 39°53' W 075°11'0 0.0
2018-Jun-18 06:31N 39°53' W 075°11'0 0.0
2018-Jun-18 06:00N 39°53' W 075°11'0 0.0
2018-Jun-18 05:30N 39°53' W 075°11'0 0.0
2018-Jun-18 05:00N 39°53' W 075°11'0 0.0
2018-Jun-18 04:30N 39°53' W 075°11'0 0.0
2018-Jun-18 04:00N 39°53' W 075°11'0 0.0
2018-Jun-18 03:30N 39°53' W 075°11'0 0.0
2018-Jun-18 03:01N 39°53' W 075°11'0 0.0
2018-Jun-18 02:30N 39°53' W 075°11'0 0.0
2018-Jun-18 02:00N 39°53' W 075°11'0 0.0
2018-Jun-18 01:30N 39°53' W 075°11'0 0.0
2018-Jun-18 01:00N 39°53' W 075°11'0 0.5
2018-Jun-18 00:31N 39°53' W 075°11'4 8.5
2018-Jun-18 00:00N 39°51' W 075°16'0 0.1
2018-Jun-17 23:30N 39°51' W 075°16'0 0.0
2018-Jun-17 23:00N 39°51' W 075°16'2 3.1
2018-Jun-17 22:30N 39°51' W 075°18'1 1.7
2018-Jun-17 22:00N 39°51' W 075°17'4 7.8
2018-Jun-17 21:30N 39°52' W 075°12'1 2.4
2018-Jun-17 21:00N 39°53' W 075°11'0 0.0
2018-Jun-17 20:30N 39°53' W 075°11'0 0.0
2018-Jun-17 20:00N 39°53' W 075°11'0 0.0
2018-Jun-17 19:30N 39°53' W 075°11'0 0.0
2018-Jun-17 19:00N 39°53' W 075°11'0 0.0
2018-Jun-17 18:30N 39°53' W 075°11'0 0.0
2018-Jun-17 18:00N 39°53' W 075°11'0 0.0
2018-Jun-17 17:30N 39°53' W 075°11'0 0.0
2018-Jun-17 17:00N 39°53' W 075°11'0 0.0
2018-Jun-17 16:30N 39°53' W 075°11'0 0.0
2018-Jun-17 16:00N 39°53' W 075°11'0 0.0
2018-Jun-17 15:30N 39°53' W 075°11'0 0.0
2018-Jun-17 15:00N 39°53' W 075°11'0 0.0
2018-Jun-17 14:30N 39°53' W 075°11'0 0.0
2018-Jun-17 14:00N 39°53' W 075°11'0 0.0
2018-Jun-17 13:29N 39°53' W 075°11'0 0.0
2018-Jun-17 13:00N 39°53' W 075°11'0 0.0
2018-Jun-17 12:31N 39°53' W 075°11'0 0.0
2018-Jun-17 12:01N 39°53' W 075°11'0 0.0
2018-Jun-17 11:30N 39°53' W 075°11'4 8.1
2018-Jun-17 11:00N 39°51' W 075°16'0 0.6
2018-Jun-17 10:30N 39°51' W 075°16'0 0.2
2018-Jun-17 10:01N 39°51' W 075°16'1 1.2
2018-Jun-17 09:30N 39°51' W 075°15'4 7.6
2018-Jun-17 09:00N 39°53' W 075°11'0 0.0
2018-Jun-17 08:30N 39°53' W 075°11'0 0.0
2018-Jun-17 08:00N 39°53' W 075°11'0 0.0
2018-Jun-17 07:30N 39°53' W 075°11'0 0.0
2018-Jun-17 07:00N 39°53' W 075°11'0 0.0
2018-Jun-17 06:30N 39°53' W 075°11'0 0.0
2018-Jun-17 06:00N 39°53' W 075°11'0 0.0
2018-Jun-17 05:30N 39°53' W 075°11'0 0.0
2018-Jun-17 05:00N 39°53' W 075°11'0 0.0
2018-Jun-17 04:30N 39°53' W 075°11'0 0.0
2018-Jun-17 04:00N 39°53' W 075°11'0 0.0
2018-Jun-17 03:30N 39°53' W 075°11'0 0.0
2018-Jun-17 03:00N 39°53' W 075°11'0 0.0
2018-Jun-17 02:30N 39°53' W 075°11'0 0.0
2018-Jun-17 02:01N 39°53' W 075°11'0 0.0
2018-Jun-17 01:30N 39°53' W 075°11'0 0.0
2018-Jun-17 01:00N 39°53' W 075°11'0 0.0
2018-Jun-17 00:30N 39°53' W 075°11'0 0.0
2018-Jun-17 00:00N 39°53' W 075°11'0 0.0
2018-Jun-16 23:30N 39°53' W 075°11'0 0.0
2018-Jun-16 23:00N 39°53' W 075°11'0 0.0
2018-Jun-16 22:30N 39°53' W 075°11'0 0.0
2018-Jun-16 22:00N 39°53' W 075°11'0 0.0
2018-Jun-16 21:30N 39°53' W 075°11'0 0.0
2018-Jun-16 21:00N 39°53' W 075°11'0 0.0
2018-Jun-16 20:30N 39°53' W 075°11'3 5.8
2018-Jun-16 20:00N 39°51' W 075°14'611.2
2018-Jun-16 19:30N 39°50' W 075°21'3 5.8
2018-Jun-16 19:00N 39°49' W 075°24'0 0.0
2018-Jun-16 18:17N 39°49' W 075°24'0 0.8
2018-Jun-16 18:01N 39°49' W 075°24'2 2.9
2018-Jun-16 17:19N 39°48' W 075°26'1 3.6
2018-Jun-16 16:59N 39°48' W 075°25'1 0.2
2018-Jun-16 13:38N 39°48' W 075°26'1 8.3
2018-Jun-16 13:30N 39°49' W 075°25'0 0.5
2018-Jun-16 13:00N 39°49' W 075°24'1 2.7
2018-Jun-16 12:30N 39°49' W 075°23'612.6
2018-Jun-16 12:00N 39°51' W 075°15'4 7.3
2018-Jun-16 11:30N 39°53' W 075°11'0 0.0
2018-Jun-16 11:00N 39°53' W 075°11'0 0.0
2018-Jun-16 10:30N 39°53' W 075°11'0 0.0
2018-Jun-16 10:00N 39°53' W 075°11'0 0.0
2018-Jun-16 09:30N 39°53' W 075°11'0 0.0
2018-Jun-16 09:00N 39°53' W 075°11'0 0.0
2018-Jun-16 08:30N 39°53' W 075°11'0 0.0
2018-Jun-16 08:00N 39°53' W 075°11'0 0.0
2018-Jun-16 07:30N 39°53' W 075°11'0 0.0
2018-Jun-16 07:00N 39°53' W 075°11'0 0.0
2018-Jun-16 06:30N 39°53' W 075°11'0 0.0
2018-Jun-16 06:00N 39°53' W 075°11'0 0.0
2018-Jun-16 05:31N 39°53' W 075°11'0 0.0
2018-Jun-16 05:00N 39°53' W 075°11'0 0.0
2018-Jun-16 04:30N 39°53' W 075°11'0 0.0
2018-Jun-16 04:00N 39°53' W 075°11'0 0.0
2018-Jun-16 03:30N 39°53' W 075°11'0 0.0
2018-Jun-16 03:00N 39°53' W 075°11'0 0.0
2018-Jun-16 02:30N 39°53' W 075°11'0 0.0
2018-Jun-16 02:00N 39°53' W 075°11'0 0.0
2018-Jun-16 01:31N 39°53' W 075°11'0 0.0
2018-Jun-16 01:01N 39°53' W 075°11'0 0.0
2018-Jun-16 00:30N 39°53' W 075°11'0 0.0
2018-Jun-16 00:00N 39°53' W 075°11'0 0.0
2018-Jun-15 23:31N 39°53' W 075°11'0 0.0
2018-Jun-15 22:59N 39°53' W 075°11'0 0.0
2018-Jun-15 22:30N 39°53' W 075°11'0 0.0
2018-Jun-15 22:00N 39°53' W 075°11'0 0.0
2018-Jun-15 21:31N 39°53' W 075°11'0 0.0
2018-Jun-15 21:00N 39°53' W 075°11'0 0.0
2018-Jun-15 20:31N 39°53' W 075°11'0 0.0
2018-Jun-15 19:56N 39°53' W 075°11'0 0.0
2018-Jun-15 19:31N 39°53' W 075°11'0 0.0
2018-Jun-15 19:01N 39°53' W 075°11'0 0.0
2018-Jun-15 18:30N 39°53' W 075°11'0 0.0
2018-Jun-15 18:00N 39°53' W 075°11'0 0.0
2018-Jun-15 17:31N 39°53' W 075°11'0 0.0
2018-Jun-15 17:00N 39°53' W 075°11'0 0.0
2018-Jun-15 16:31N 39°53' W 075°11'0 0.0
2018-Jun-15 16:00N 39°53' W 075°11'0 0.0
2018-Jun-15 15:30N 39°53' W 075°11'0 0.0
2018-Jun-15 15:00N 39°53' W 075°11'1 1.1
2018-Jun-15 14:30N 39°53' W 075°12'0 0.0
2018-Jun-15 14:00N 39°53' W 075°12'0 0.0
2018-Jun-15 13:30N 39°53' W 075°12'0 0.2
2018-Jun-15 13:00N 39°53' W 075°12'1 1.0
2018-Jun-15 12:30N 39°53' W 075°11'0 0.0
2018-Jun-15 12:00N 39°53' W 075°11'0 0.0
2018-Jun-15 11:30N 39°53' W 075°11'0 0.0
2018-Jun-15 11:01N 39°53' W 075°11'1 2.3
2018-Jun-15 10:31N 39°53' W 075°10'0 0.3
2018-Jun-15 10:00N 39°53' W 075°10'1 2.1
2018-Jun-15 09:30N 39°53' W 075°11'0 0.0
2018-Jun-15 09:00N 39°53' W 075°11'0 0.0
2018-Jun-15 08:30N 39°53' W 075°11'0 0.0
2018-Jun-15 07:59N 39°53' W 075°11'0 0.0
2018-Jun-15 07:30N 39°53' W 075°11'0 0.0
2018-Jun-15 07:00N 39°53' W 075°11'0 0.0
2018-Jun-15 06:30N 39°53' W 075°11'0 0.0
2018-Jun-15 06:00N 39°53' W 075°11'0 0.0
2018-Jun-15 05:30N 39°53' W 075°11'0 0.0
2018-Jun-15 05:00N 39°53' W 075°11'0 0.0
2018-Jun-15 04:30N 39°53' W 075°11'0 0.0
2018-Jun-15 04:00N 39°53' W 075°11'0 0.0
2018-Jun-15 03:30N 39°53' W 075°11'3 5.3
2018-Jun-15 03:00N 39°54' W 075°08'4 8.2
2018-Jun-15 02:31N 39°58' W 075°07'2 3.7
2018-Jun-15 02:00N 39°59' W 075°04'0 0.0
2018-Jun-15 01:31N 39°59' W 075°04'0 0.0
2018-Jun-15 01:00N 39°59' W 075°04'0 0.0
2018-Jun-15 00:30N 39°59' W 075°04'0 0.0
2018-Jun-15 00:00N 39°59' W 075°04'3 6.0
2018-Jun-14 23:30N 39°58' W 075°08'4 7.2
2018-Jun-14 23:00N 39°54' W 075°08'3 5.0
2018-Jun-14 22:30N 39°53' W 075°11'0 0.0
2018-Jun-14 22:00N 39°53' W 075°11'0 0.0
2018-Jun-14 21:30N 39°53' W 075°11'0 0.0
2018-Jun-14 21:00N 39°53' W 075°11'0 0.0
2018-Jun-14 20:30N 39°53' W 075°11'0 0.0
2018-Jun-14 20:00N 39°53' W 075°11'0 0.0
2018-Jun-14 19:30N 39°53' W 075°11'0 0.0
2018-Jun-14 19:00N 39°53' W 075°11'0 0.0
2018-Jun-14 18:30N 39°53' W 075°11'0 0.0
2018-Jun-14 18:00N 39°53' W 075°11'0 0.0
2018-Jun-14 17:31N 39°53' W 075°11'0 0.0
2018-Jun-14 17:00N 39°53' W 075°11'0 0.0
2018-Jun-14 16:30N 39°53' W 075°11'0 0.0
2018-Jun-14 16:00N 39°53' W 075°11'0 0.0
2018-Jun-14 15:30N 39°53' W 075°11'0 0.0
2018-Jun-14 15:01N 39°53' W 075°11'2 3.7
2018-Jun-14 14:30N 39°53' W 075°09'4 8.6
2018-Jun-14 14:00N 39°57' W 075°08'3 6.2
2018-Jun-14 13:30N 39°59' W 075°04'0 0.0
2018-Jun-14 13:00N 39°59' W 075°04'1 2.4
2018-Jun-14 12:30N 39°59' W 075°06'0 0.0
2018-Jun-14 12:01N 39°59' W 075°06'0 0.0
2018-Jun-14 11:31N 39°59' W 075°06'0 0.0
2018-Jun-14 11:00N 39°59' W 075°06'3 5.4
2018-Jun-14 10:30N 39°57' W 075°08'3 5.8
2018-Jun-14 10:00N 39°54' W 075°08'4 7.8
2018-Jun-14 09:31N 39°52' W 075°13'3 5.8
2018-Jun-14 09:00N 39°51' W 075°16'0 0.0
2018-Jun-14 08:30N 39°51' W 075°16'0 0.1
2018-Jun-14 08:00N 39°51' W 075°16'1 2.0
2018-Jun-14 07:30N 39°51' W 075°17'1 1.2
2018-Jun-14 07:00N 39°51' W 075°18'5 9.4
2018-Jun-14 06:31N 39°52' W 075°13'1 2.6
2018-Jun-14 06:00N 39°53' W 075°11'0 0.0
2018-Jun-14 05:30N 39°53' W 075°11'0 0.0
2018-Jun-14 05:00N 39°53' W 075°11'0 0.0
2018-Jun-14 04:30N 39°53' W 075°11'0 0.0
2018-Jun-14 04:00N 39°53' W 075°11'0 0.0
2018-Jun-14 03:30N 39°53' W 075°11'0 0.0
2018-Jun-14 03:00N 39°53' W 075°11'0 0.0
2018-Jun-14 02:30N 39°53' W 075°11'0 0.0
2018-Jun-14 02:00N 39°53' W 075°11'0 0.0
2018-Jun-14 01:31N 39°53' W 075°11'0 0.0
2018-Jun-14 01:00N 39°53' W 075°11'0 0.0
2018-Jun-14 00:30N 39°53' W 075°11'0 0.0
2018-Jun-14 00:00N 39°53' W 075°11'0 0.0
2018-Jun-13 23:31N 39°53' W 075°11'0 0.0
2018-Jun-13 23:00N 39°53' W 075°11'0 0.0
2018-Jun-13 22:30N 39°53' W 075°11'0 0.0
2018-Jun-13 22:00N 39°53' W 075°11'0 0.0
2018-Jun-13 21:30N 39°53' W 075°11'0 0.0
2018-Jun-13 21:01N 39°53' W 075°11'0 0.0
2018-Jun-13 20:30N 39°53' W 075°11'0 0.0
2018-Jun-13 20:00N 39°53' W 075°11'1 1.9
2018-Jun-13 19:30N 39°53' W 075°10'0 0.6
2018-Jun-13 19:00N 39°53' W 075°10'0 0.3
2018-Jun-13 18:31N 39°53' W 075°10'4 7.6
2018-Jun-13 18:01N 39°52' W 075°14'5 9.5
2018-Jun-13 17:31N 39°51' W 075°20'611.8
2018-Jun-13 17:01N 39°47' W 075°27'713.6
2018-Jun-13 16:31N 39°42' W 075°31'612.6
2018-Jun-13 16:00N 39°36' W 075°34'1 2.4
2018-Jun-13 15:30N 39°35' W 075°35'1 1.4
2018-Jun-13 15:00N 39°35' W 075°36'1 1.6
2018-Jun-13 14:30N 39°35' W 075°35'1 1.1
2018-Jun-13 14:01N 39°35' W 075°35'0 0.3
2018-Jun-13 13:30N 39°35' W 075°35'0 0.0
2018-Jun-13 13:00N 39°35' W 075°35'0 0.0
2018-Jun-13 12:30N 39°35' W 075°35'0 0.0
2018-Jun-13 12:00N 39°35' W 075°35'0 0.0
2018-Jun-13 11:29N 39°35' W 075°35'0 0.0
2018-Jun-13 11:01N 39°35' W 075°35'0 0.0
2018-Jun-13 10:30N 39°35' W 075°35'0 0.0
2018-Jun-13 10:00N 39°35' W 075°35'0 0.0
2018-Jun-13 09:30N 39°35' W 075°35'0 0.0
2018-Jun-13 09:00N 39°35' W 075°35'0 0.0
2018-Jun-13 08:30N 39°35' W 075°35'0 0.0
2018-Jun-13 08:00N 39°35' W 075°35'0 0.0
2018-Jun-13 07:31N 39°35' W 075°35'0 0.0
2018-Jun-13 07:00N 39°35' W 075°35'0 0.4
2018-Jun-13 06:30N 39°35' W 075°36'0 0.1
2018-Jun-13 06:00N 39°35' W 075°36'0 0.0
2018-Jun-13 05:30N 39°35' W 075°36'0 0.0
2018-Jun-13 05:00N 39°35' W 075°36'0 0.0
2018-Jun-13 04:31N 39°35' W 075°36'0 0.0
2018-Jun-13 04:01N 39°35' W 075°36'0 0.0
2018-Jun-13 03:30N 39°35' W 075°36'5 9.2
2018-Jun-13 03:01N 39°31' W 075°33'713.7
2018-Jun-13 02:30N 39°25' W 075°30'713.7
2018-Jun-13 02:00N 39°19' W 075°24'714.8
2018-Jun-13 01:30N 39°14' W 075°18'1412.1
2018-Jun-13 00:21N 39°00' W 075°14'0 0.1
2018-Jun-12 23:57N 39°00' W 075°14'1 1.3
2018-Jun-12 23:29N 39°01' W 075°14'0 0.6
2018-Jun-12 23:00N 39°01' W 075°15'1 0.9
2018-Jun-12 22:01N 39°02' W 075°14'0 2.2
2018-Jun-12 21:57N 39°02' W 075°14'0 0.7
2018-Jun-12 21:28N 39°01' W 075°14'1 1.7
2018-Jun-12 20:53N 39°02' W 075°14'5 7.1
2018-Jun-12 20:13N 39°07' W 075°13'311.5
2018-Jun-12 19:58N 39°10' W 075°15'714.4
2018-Jun-12 19:30N 39°15' W 075°20'715.3
2018-Jun-12 19:00N 39°21' W 075°26'815.1
2018-Jun-12 18:31N 39°27' W 075°32'713.9
2018-Jun-12 18:01N 39°34' W 075°33'2 4.1
2018-Jun-12 17:30N 39°35' W 075°35'0 0.0
2018-Jun-12 17:00N 39°35' W 075°35'1 2.0
2018-Jun-12 16:30N 39°35' W 075°34'1 2.4
2018-Jun-12 16:00N 39°34' W 075°33'2 5.0
2018-Jun-12 15:30N 39°36' W 075°34'4 8.2
2018-Jun-12 15:00N 39°40' W 075°32'4 8.5
2018-Jun-12 14:30N 39°44' W 075°30'5 9.6
2018-Jun-12 14:00N 39°48' W 075°26'4 7.2
2018-Jun-12 13:30N 39°50' W 075°22'4 7.1
2018-Jun-12 13:01N 39°51' W 075°18'1 2.7
2018-Jun-12 12:31N 39°51' W 075°16'0 0.3
2018-Jun-12 12:00N 39°51' W 075°16'3 6.2
2018-Jun-12 11:31N 39°52' W 075°12'1 2.7
2018-Jun-12 11:00N 39°53' W 075°11'0 0.0
2018-Jun-12 10:30N 39°53' W 075°11'0 0.0
2018-Jun-12 10:00N 39°53' W 075°11'0 0.0
2018-Jun-12 09:30N 39°53' W 075°11'0 0.0
2018-Jun-12 09:01N 39°53' W 075°11'0 0.0
2018-Jun-12 08:30N 39°53' W 075°11'0 0.0
2018-Jun-12 08:00N 39°53' W 075°11'0 0.0
2018-Jun-12 07:31N 39°53' W 075°11'0 0.0
2018-Jun-12 07:00N 39°53' W 075°11'0 0.0
2018-Jun-12 06:30N 39°53' W 075°11'0 0.0
2018-Jun-12 06:00N 39°53' W 075°11'0 0.0
2018-Jun-12 05:30N 39°53' W 075°11'0 0.0
2018-Jun-12 05:00N 39°53' W 075°11'0 0.0
2018-Jun-12 04:31N 39°53' W 075°11'0 0.0
2018-Jun-12 04:00N 39°53' W 075°11'0 0.0
2018-Jun-12 03:30N 39°53' W 075°11'0 0.0
2018-Jun-12 03:00N 39°53' W 075°11'0 0.0
2018-Jun-12 02:30N 39°53' W 075°11'0 0.0
2018-Jun-12 02:00N 39°53' W 075°11'0 0.0
2018-Jun-12 01:30N 39°53' W 075°11'0 0.0
2018-Jun-12 01:00N 39°53' W 075°11'2 3.7
2018-Jun-12 00:30N 39°52' W 075°13'0 0.1
2018-Jun-12 00:00N 39°52' W 075°13'1 2.8
2018-Jun-11 23:31N 39°53' W 075°12'0 0.9
2018-Jun-11 23:00N 39°53' W 075°11'0 0.0
2018-Jun-11 22:30N 39°53' W 075°11'0 0.0
2018-Jun-11 22:00N 39°53' W 075°11'0 0.0
2018-Jun-11 21:30N 39°53' W 075°11'0 0.0
2018-Jun-11 21:00N 39°53' W 075°11'0 0.0
2018-Jun-11 20:30N 39°53' W 075°11'0 0.0
2018-Jun-11 20:00N 39°53' W 075°11'0 0.0
2018-Jun-11 19:30N 39°53' W 075°11'0 0.0
2018-Jun-11 19:00N 39°53' W 075°11'4 7.3
2018-Jun-11 18:30N 39°51' W 075°15'1 1.8
2018-Jun-11 18:00N 39°51' W 075°16'0 0.0
2018-Jun-11 17:30N 39°51' W 075°16'1 2.5
2018-Jun-11 17:00N 39°51' W 075°18'1 2.5
2018-Jun-11 16:30N 39°51' W 075°16'3 6.2
2018-Jun-11 16:00N 39°52' W 075°13'4 8.4
2018-Jun-11 15:30N 39°54' W 075°08'3 6.5
2018-Jun-11 15:01N 39°58' W 075°08'2 3.7
2018-Jun-11 14:31N 39°59' W 075°06'0 0.0
2018-Jun-11 14:00N 39°59' W 075°06'0 0.0
2018-Jun-11 13:31N 39°59' W 075°06'0 0.0
2018-Jun-11 13:00N 39°59' W 075°06'0 0.0
2018-Jun-11 12:30N 39°59' W 075°06'0 0.0
2018-Jun-11 11:59N 39°59' W 075°06'0 0.0
2018-Jun-11 11:30N 39°59' W 075°06'0 0.0
2018-Jun-11 11:00N 39°59' W 075°06'0 0.0
2018-Jun-11 10:30N 39°59' W 075°06'0 0.0
2018-Jun-11 10:00N 39°59' W 075°06'0 0.0
2018-Jun-11 09:30N 39°59' W 075°06'0 0.0
2018-Jun-11 09:00N 39°59' W 075°06'0 0.0
2018-Jun-11 08:30N 39°59' W 075°06'1 2.4
2018-Jun-11 08:01N 39°59' W 075°04'0 0.1
2018-Jun-11 07:31N 39°59' W 075°04'1 2.4
2018-Jun-11 07:01N 39°59' W 075°06'0 0.1
2018-Jun-11 06:30N 39°59' W 075°06'0 0.0
2018-Jun-11 06:00N 39°59' W 075°06'0 0.0
2018-Jun-11 05:30N 39°59' W 075°06'0 0.0
2018-Jun-11 05:00N 39°59' W 075°06'0 0.0
2018-Jun-11 04:30N 39°59' W 075°06'3 6.7
2018-Jun-11 04:01N 39°56' W 075°08'3 6.9
2018-Jun-11 03:31N 39°53' W 075°11'2 3.9
2018-Jun-11 03:00N 39°52' W 075°13'0 0.0
2018-Jun-11 02:28N 39°52' W 075°13'1 1.2
2018-Jun-11 01:55N 39°52' W 075°14'1 1.2
2018-Jun-11 01:27N 39°51' W 075°14'3 6.8
2018-Jun-11 01:00N 39°53' W 075°11'2 4.1
2018-Jun-11 00:25N 39°54' W 075°08'510.3
2018-Jun-10 23:55N 39°59' W 075°06'0 0.3
2018-Jun-10 23:24N 39°59' W 075°05'0 0.2
2018-Jun-10 22:53N 39°59' W 075°05'1 1.2
2018-Jun-10 22:27N 39°59' W 075°06'0 0.0
2018-Jun-10 21:50N 39°59' W 075°06'0 0.0
2018-Jun-10 21:20N 39°59' W 075°06'0 0.0
2018-Jun-10 20:51N 39°59' W 075°06'0 0.0
2018-Jun-10 20:26N 39°59' W 075°06'0 0.0
2018-Jun-10 19:50N 39°59' W 075°06'0 0.0
2018-Jun-10 19:20N 39°59' W 075°06'0 0.0
2018-Jun-10 18:50N 39°59' W 075°06'0 0.0
2018-Jun-10 18:20N 39°59' W 075°06'0 0.0
2018-Jun-10 17:51N 39°59' W 075°06'0 0.0
2018-Jun-10 17:22N 39°59' W 075°06'0 0.0
2018-Jun-10 16:51N 39°59' W 075°06'0 0.0
2018-Jun-10 16:23N 39°59' W 075°06'0 0.0
2018-Jun-10 15:54N 39°59' W 075°06'0 0.0
2018-Jun-10 15:25N 39°59' W 075°06'0 0.0
2018-Jun-10 14:56N 39°59' W 075°06'0 0.0
2018-Jun-10 14:28N 39°59' W 075°06'0 0.0
2018-Jun-10 13:29N 39°59' W 075°06'0 0.0
2018-Jun-10 12:56N 39°59' W 075°06'0 0.0
2018-Jun-10 12:30N 39°59' W 075°06'0 0.0
2018-Jun-10 11:59N 39°59' W 075°06'0 0.0
2018-Jun-10 11:29N 39°59' W 075°06'0 0.0
2018-Jun-10 10:59N 39°59' W 075°06'1 2.0
2018-Jun-10 10:22N 39°59' W 075°04'1 3.2
2018-Jun-10 09:58N 39°59' W 075°06'0 0.0
2018-Jun-10 09:25N 39°59' W 075°06'0 0.0
2018-Jun-10 08:53N 39°59' W 075°06'0 0.0
2018-Jun-10 08:29N 39°59' W 075°06'0 0.0
2018-Jun-10 07:59N 39°59' W 075°06'0 0.0
2018-Jun-10 07:25N 39°59' W 075°06'0 0.0
2018-Jun-10 06:52N 39°59' W 075°06'0 0.0
2018-Jun-10 06:26N 39°59' W 075°06'0 0.0
2018-Jun-10 05:50N 39°59' W 075°06'0 0.0
2018-Jun-10 05:27N 39°59' W 075°06'0 0.0
2018-Jun-10 04:57N 39°59' W 075°06'0 0.0
2018-Jun-10 04:30N 39°59' W 075°06'0 0.0
2018-Jun-10 03:56N 39°59' W 075°06'0 0.0
2018-Jun-10 03:22N 39°59' W 075°06'0 0.0
2018-Jun-10 03:00N 39°59' W 075°06'0 0.0
2018-Jun-10 02:22N 39°59' W 075°06'0 0.0
2018-Jun-10 01:53N 39°59' W 075°06'0 0.0
2018-Jun-10 01:28N 39°59' W 075°06'0 0.0
2018-Jun-10 00:58N 39°59' W 075°06'0 0.0
2018-Jun-10 00:25N 39°59' W 075°06'0 0.0
2018-Jun-09 23:55N 39°59' W 075°06'1 2.5
2018-Jun-09 23:28N 39°59' W 075°05'0 0.3
2018-Jun-09 22:58N 39°59' W 075°04'1 1.9
2018-Jun-09 22:26N 39°59' W 075°06'0 0.9
2018-Jun-09 21:57N 39°58' W 075°06'3 6.0
2018-Jun-09 21:25N 39°56' W 075°08'0 1.0
2018-Jun-09 21:00N 39°55' W 075°08'3 6.0
2018-Jun-09 20:27N 39°58' W 075°07'1 0.9
2018-Jun-09 19:48N 39°59' W 075°06'0 0.0
2018-Jun-09 19:24N 39°59' W 075°06'0 0.0
2018-Jun-09 18:50N 39°59' W 075°06'0 0.0
2018-Jun-09 18:27N 39°59' W 075°06'2 3.2
2018-Jun-09 17:58N 39°58' W 075°08'4 7.5
2018-Jun-09 17:26N 39°54' W 075°08'2 4.6
2018-Jun-09 17:00N 39°53' W 075°10'2 4.3
2018-Jun-09 16:29N 39°52' W 075°13'0 0.2
2018-Jun-09 16:01N 39°52' W 075°13'2 1.8
2018-Jun-09 15:00N 39°53' W 075°11'0 0.0
2018-Jun-09 14:28N 39°53' W 075°11'2 3.6
2018-Jun-09 13:58N 39°53' W 075°09'4 8.7
2018-Jun-09 13:30N 39°57' W 075°08'3 5.3
2018-Jun-09 13:00N 39°59' W 075°05'0 0.2
2018-Jun-09 12:30N 39°59' W 075°05'3 6.0
2018-Jun-09 11:59N 39°57' W 075°08'2 4.4
2018-Jun-09 11:29N 39°54' W 075°08'3 5.8
2018-Jun-09 11:00N 39°53' W 075°11'0 0.0
2018-Jun-09 10:29N 39°53' W 075°11'0 0.0
2018-Jun-09 10:00N 39°53' W 075°11'0 0.0
2018-Jun-09 09:27N 39°53' W 075°11'0 0.0
2018-Jun-09 08:59N 39°53' W 075°11'0 0.0
2018-Jun-09 08:30N 39°53' W 075°11'0 0.0
2018-Jun-09 07:59N 39°53' W 075°11'0 0.0
2018-Jun-09 07:29N 39°53' W 075°11'0 0.0
2018-Jun-09 07:00N 39°53' W 075°11'0 0.0
2018-Jun-09 06:30N 39°53' W 075°11'0 0.0
2018-Jun-09 06:00N 39°53' W 075°11'0 0.0
2018-Jun-09 05:30N 39°53' W 075°11'0 0.0
2018-Jun-09 05:00N 39°53' W 075°11'  

Dump ship's entire track history